sensor_id;sensor_type;location;lat;lon;timestamp;temperature;humidity
19344;DHT22;9808;52.402;16.678;2022-10-31T00:01:20;9.50;99.90
19344;DHT22;9808;52.402;16.678;2022-10-31T00:03:47;9.50;99.90
19344;DHT22;9808;52.402;16.678;2022-10-31T00:06:15;9.50;99.90
19344;DHT22;9808;52.402;16.678;2022-10-31T00:08:46;9.50;99.90
19344;DHT22;9808;52.402;16.678;2022-10-31T00:11:13;9.50;99.90
19344;DHT22;9808;52.402;16.678;2022-10-31T00:13:40;9.50;99.90
19344;DHT22;9808;52.402;16.678;2022-10-31T00:16:14;9.40;99.90
19344;DHT22;9808;52.402;16.678;2022-10-31T00:18:40;9.40;99.90
19344;DHT22;9808;52.402;16.678;2022-10-31T00:21:07;10.30;99.90
19344;DHT22;9808;52.402;16.678;2022-10-31T00:23:34;9.10;99.90
19344;DHT22;9808;52.402;16.678;2022-10-31T00:26:02;9.30;99.90
19344;DHT22;9808;52.402;16.678;2022-10-31T00:28:30;9.40;99.90
19344;DHT22;9808;52.402;16.678;2022-10-31T00:31:01;9.40;99.90
19344;DHT22;9808;52.402;16.678;2022-10-31T00:33:28;9.40;99.90
19344;DHT22;9808;52.402;16.678;2022-10-31T00:35:56;9.30;99.90
19344;DHT22;9808;52.402;16.678;2022-10-31T00:38:23;9.30;99.90
19344;DHT22;9808;52.402;16.678;2022-10-31T00:40:50;10.50;99.90
19344;DHT22;9808;52.402;16.678;2022-10-31T00:43:16;9.30;99.90
19344;DHT22;9808;52.402;16.678;2022-10-31T00:45:43;9.80;99.90
19344;DHT22;9808;52.402;16.678;2022-10-31T00:48:10;9.20;99.90
19344;DHT22;9808;52.402;16.678;2022-10-31T00:50:37;9.20;99.90
19344;DHT22;9808;52.402;16.678;2022-10-31T00:53:05;9.10;99.90
19344;DHT22;9808;52.402;16.678;2022-10-31T00:55:32;9.10;99.90
19344;DHT22;9808;52.402;16.678;2022-10-31T00:57:59;10.10;99.90
19344;DHT22;9808;52.402;16.678;2022-10-31T01:00:27;9.20;99.90
19344;DHT22;9808;52.402;16.678;2022-10-31T01:02:54;9.20;99.90
19344;DHT22;9808;52.402;16.678;2022-10-31T01:05:21;9.20;99.90
19344;DHT22;9808;52.402;16.678;2022-10-31T01:07:48;9.20;99.90
19344;DHT22;9808;52.402;16.678;2022-10-31T01:10:15;10.20;99.90
19344;DHT22;9808;52.402;16.678;2022-10-31T01:12:44;9.10;99.90
19344;DHT22;9808;52.402;16.678;2022-10-31T01:15:13;9.10;99.90
19344;DHT22;9808;52.402;16.678;2022-10-31T01:17:40;9.10;99.90
19344;DHT22;9808;52.402;16.678;2022-10-31T01:20:08;9.70;99.90
19344;DHT22;9808;52.402;16.678;2022-10-31T01:22:35;9.10;99.90
19344;DHT22;9808;52.402;16.678;2022-10-31T01:25:02;9.00;99.90
19344;DHT22;9808;52.402;16.678;2022-10-31T01:27:31;9.00;99.90
19344;DHT22;9808;52.402;16.678;2022-10-31T01:29:58;9.00;99.90
19344;DHT22;9808;52.402;16.678;2022-10-31T01:32:24;9.00;99.90
19344;DHT22;9808;52.402;16.678;2022-10-31T01:34:51;8.90;99.90
19344;DHT22;9808;52.402;16.678;2022-10-31T01:37:18;8.90;99.90
19344;DHT22;9808;52.402;16.678;2022-10-31T01:39:45;8.90;99.90
19344;DHT22;9808;52.402;16.678;2022-10-31T01:42:19;8.90;99.90
19344;DHT22;9808;52.402;16.678;2022-10-31T01:44:53;9.20;99.90
19344;DHT22;9808;52.402;16.678;2022-10-31T01:47:32;8.90;99.90
19344;DHT22;9808;52.402;16.678;2022-10-31T01:50:05;8.90;99.90
19344;DHT22;9808;52.402;16.678;2022-10-31T01:52:47;8.90;99.90
19344;DHT22;9808;52.402;16.678;2022-10-31T01:55:35;8.80;99.90
19344;DHT22;9808;52.402;16.678;2022-10-31T01:58:15;8.80;99.90
19344;DHT22;9808;52.402;16.678;2022-10-31T02:00:47;9.20;99.90
19344;DHT22;9808;52.402;16.678;2022-10-31T02:03:15;8.80;99.90
19344;DHT22;9808;52.402;16.678;2022-10-31T02:05:43;8.80;99.90
19344;DHT22;9808;52.402;16.678;2022-10-31T02:08:30;8.80;99.90
19344;DHT22;9808;52.402;16.678;2022-10-31T02:10:58;8.80;99.90
19344;DHT22;9808;52.402;16.678;2022-10-31T02:13:26;8.80;99.90
19344;DHT22;9808;52.402;16.678;2022-10-31T02:15:57;9.60;99.90
19344;DHT22;9808;52.402;16.678;2022-10-31T02:18:26;9.10;99.90
19344;DHT22;9808;52.402;16.678;2022-10-31T02:21:17;8.70;99.90
19344;DHT22;9808;52.402;16.678;2022-10-31T02:35:39;8.60;99.90
19344;DHT22;9808;52.402;16.678;2022-10-31T02:41:04;8.60;99.90
19344;DHT22;9808;52.402;16.678;2022-10-31T02:43:42;8.60;99.90
19344;DHT22;9808;52.402;16.678;2022-10-31T02:46:14;8.60;99.90
19344;DHT22;9808;52.402;16.678;2022-10-31T02:48:45;8.50;99.90
19344;DHT22;9808;52.402;16.678;2022-10-31T02:51:13;8.50;99.90
19344;DHT22;9808;52.402;16.678;2022-10-31T02:53:40;8.50;99.90
19344;DHT22;9808;52.402;16.678;2022-10-31T02:56:12;8.50;99.90
19344;DHT22;9808;52.402;16.678;2022-10-31T02:58:49;9.60;99.90
19344;DHT22;9808;52.402;16.678;2022-10-31T03:02:23;9.20;99.90
19344;DHT22;9808;52.402;16.678;2022-10-31T03:10:19;8.40;99.90
19344;DHT22;9808;52.402;16.678;2022-10-31T03:15:40;8.40;99.90
19344;DHT22;9808;52.402;16.678;2022-10-31T03:18:32;9.00;99.90
19344;DHT22;9808;52.402;16.678;2022-10-31T03:21:26;8.40;99.90
19344;DHT22;9808;52.402;16.678;2022-10-31T03:23:54;8.40;99.90
19344;DHT22;9808;52.402;16.678;2022-10-31T03:26:24;8.30;99.90
19344;DHT22;9808;52.402;16.678;2022-10-31T03:29:05;8.30;99.90
19344;DHT22;9808;52.402;16.678;2022-10-31T03:31:36;9.30;99.90
19344;DHT22;9808;52.402;16.678;2022-10-31T03:34:06;8.30;99.90
19344;DHT22;9808;52.402;16.678;2022-10-31T03:36:35;8.30;99.90
19344;DHT22;9808;52.402;16.678;2022-10-31T03:39:05;8.30;99.90
19344;DHT22;9808;52.402;16.678;2022-10-31T03:41:39;8.20;99.90
19344;DHT22;9808;52.402;16.678;2022-10-31T03:44:12;8.20;99.90
19344;DHT22;9808;52.402;16.678;2022-10-31T03:46:40;8.20;99.90
19344;DHT22;9808;52.402;16.678;2022-10-31T03:49:08;8.20;99.90
19344;DHT22;9808;52.402;16.678;2022-10-31T03:54:46;8.20;99.90
19344;DHT22;9808;52.402;16.678;2022-10-31T03:59:55;8.10;99.90
19344;DHT22;9808;52.402;16.678;2022-10-31T04:02:27;8.10;99.90
19344;DHT22;9808;52.402;16.678;2022-10-31T04:04:56;8.10;99.90
19344;DHT22;9808;52.402;16.678;2022-10-31T04:07:27;9.00;99.90
19344;DHT22;9808;52.402;16.678;2022-10-31T04:09:55;8.10;99.90
19344;DHT22;9808;52.402;16.678;2022-10-31T04:12:24;9.20;99.90
19344;DHT22;9808;52.402;16.678;2022-10-31T04:14:53;8.30;99.90
19344;DHT22;9808;52.402;16.678;2022-10-31T04:17:23;8.70;99.90
19344;DHT22;9808;52.402;16.678;2022-10-31T04:19:51;8.00;99.90
19344;DHT22;9808;52.402;16.678;2022-10-31T04:22:18;8.00;99.90
19344;DHT22;9808;52.402;16.678;2022-10-31T04:24:45;8.00;99.90
19344;DHT22;9808;52.402;16.678;2022-10-31T04:27:11;8.00;99.90
19344;DHT22;9808;52.402;16.678;2022-10-31T04:29:38;8.00;99.90
19344;DHT22;9808;52.402;16.678;2022-10-31T04:32:05;9.60;99.90
19344;DHT22;9808;52.402;16.678;2022-10-31T04:34:31;7.90;99.90
19344;DHT22;9808;52.402;16.678;2022-10-31T04:36:58;9.00;99.90
19344;DHT22;9808;52.402;16.678;2022-10-31T04:39:25;7.90;99.90
19344;DHT22;9808;52.402;16.678;2022-10-31T04:41:52;7.90;99.90
19344;DHT22;9808;52.402;16.678;2022-10-31T04:44:19;7.80;99.90
19344;DHT22;9808;52.402;16.678;2022-10-31T04:46:46;7.80;99.90
19344;DHT22;9808;52.402;16.678;2022-10-31T04:49:13;7.80;99.90
19344;DHT22;9808;52.402;16.678;2022-10-31T04:51:39;7.80;99.90
19344;DHT22;9808;52.402;16.678;2022-10-31T04:54:06;7.80;99.90
19344;DHT22;9808;52.402;16.678;2022-10-31T04:56:33;9.20;99.90
19344;DHT22;9808;52.402;16.678;2022-10-31T04:59:00;7.80;99.90
19344;DHT22;9808;52.402;16.678;2022-10-31T05:01:27;7.70;99.90
19344;DHT22;9808;52.402;16.678;2022-10-31T05:03:54;7.70;99.90
19344;DHT22;9808;52.402;16.678;2022-10-31T05:06:21;7.20;99.90
19344;DHT22;9808;52.402;16.678;2022-10-31T05:08:48;7.70;99.90
19344;DHT22;9808;52.402;16.678;2022-10-31T05:11:14;7.70;99.90
19344;DHT22;9808;52.402;16.678;2022-10-31T05:13:41;9.20;99.90
19344;DHT22;9808;52.402;16.678;2022-10-31T05:16:08;7.70;99.90
19344;DHT22;9808;52.402;16.678;2022-10-31T05:18:35;7.70;99.90
19344;DHT22;9808;52.402;16.678;2022-10-31T05:21:01;7.60;99.90
19344;DHT22;9808;52.402;16.678;2022-10-31T05:23:28;7.60;99.90
19344;DHT22;9808;52.402;16.678;2022-10-31T05:25:55;7.70;99.90
19344;DHT22;9808;52.402;16.678;2022-10-31T05:28:22;7.70;99.90
19344;DHT22;9808;52.402;16.678;2022-10-31T05:30:49;7.70;99.90
19344;DHT22;9808;52.402;16.678;2022-10-31T05:33:16;7.70;99.90
19344;DHT22;9808;52.402;16.678;2022-10-31T05:35:42;8.80;99.90
19344;DHT22;9808;52.402;16.678;2022-10-31T05:38:09;7.60;99.90
19344;DHT22;9808;52.402;16.678;2022-10-31T05:40:36;7.70;99.90
19344;DHT22;9808;52.402;16.678;2022-10-31T05:43:03;7.70;99.90
19344;DHT22;9808;52.402;16.678;2022-10-31T05:45:29;7.60;99.90
19344;DHT22;9808;52.402;16.678;2022-10-31T05:47:58;7.70;99.90
19344;DHT22;9808;52.402;16.678;2022-10-31T05:50:28;7.70;99.90
19344;DHT22;9808;52.402;16.678;2022-10-31T05:53:00;7.70;99.90
19344;DHT22;9808;52.402;16.678;2022-10-31T05:55:28;7.70;99.90
19344;DHT22;9808;52.402;16.678;2022-10-31T05:57:55;7.80;99.90
19344;DHT22;9808;52.402;16.678;2022-10-31T06:00:23;8.70;99.90
19344;DHT22;9808;52.402;16.678;2022-10-31T06:03:01;7.70;99.90
19344;DHT22;9808;52.402;16.678;2022-10-31T06:05:29;7.70;99.90
19344;DHT22;9808;52.402;16.678;2022-10-31T06:07:56;7.70;99.90
19344;DHT22;9808;52.402;16.678;2022-10-31T06:10:25;7.70;99.90
19344;DHT22;9808;52.402;16.678;2022-10-31T06:12:52;7.70;99.90
19344;DHT22;9808;52.402;16.678;2022-10-31T06:15:19;7.70;99.90
19344;DHT22;9808;52.402;16.678;2022-10-31T06:18:04;7.70;99.90
19344;DHT22;9808;52.402;16.678;2022-10-31T06:20:32;7.70;99.90
19344;DHT22;9808;52.402;16.678;2022-10-31T06:22:59;8.30;99.90
19344;DHT22;9808;52.402;16.678;2022-10-31T06:25:27;7.70;99.90
19344;DHT22;9808;52.402;16.678;2022-10-31T06:27:54;7.50;99.90
19344;DHT22;9808;52.402;16.678;2022-10-31T06:30:21;7.80;99.90
19344;DHT22;9808;52.402;16.678;2022-10-31T06:32:48;7.80;99.90
19344;DHT22;9808;52.402;16.678;2022-10-31T06:35:16;7.80;99.90
19344;DHT22;9808;52.402;16.678;2022-10-31T06:37:50;7.70;99.90
19344;DHT22;9808;52.402;16.678;2022-10-31T06:40:16;7.90;99.90
19344;DHT22;9808;52.402;16.678;2022-10-31T06:42:43;7.90;99.90
19344;DHT22;9808;52.402;16.678;2022-10-31T06:45:10;7.90;99.90
19344;DHT22;9808;52.402;16.678;2022-10-31T06:47:37;7.90;99.90
19344;DHT22;9808;52.402;16.678;2022-10-31T06:50:23;8.40;99.90
19344;DHT22;9808;52.402;16.678;2022-10-31T06:52:52;8.00;99.90
19344;DHT22;9808;52.402;16.678;2022-10-31T06:55:19;8.00;99.90
19344;DHT22;9808;52.402;16.678;2022-10-31T06:57:50;8.10;99.90
19344;DHT22;9808;52.402;16.678;2022-10-31T07:00:17;8.10;99.90
19344;DHT22;9808;52.402;16.678;2022-10-31T07:02:53;8.20;99.90
19344;DHT22;9808;52.402;16.678;2022-10-31T07:05:19;8.20;99.90
19344;DHT22;9808;52.402;16.678;2022-10-31T07:07:47;8.60;99.90
19344;DHT22;9808;52.402;16.678;2022-10-31T07:10:13;8.20;99.90
19344;DHT22;9808;52.402;16.678;2022-10-31T07:12:40;8.40;99.90
19344;DHT22;9808;52.402;16.678;2022-10-31T07:15:07;9.40;99.90
19344;DHT22;9808;52.402;16.678;2022-10-31T07:17:34;8.60;99.90
19344;DHT22;9808;52.402;16.678;2022-10-31T07:20:01;8.60;99.90
19344;DHT22;9808;52.402;16.678;2022-10-31T07:22:37;8.70;99.90
19344;DHT22;9808;52.402;16.678;2022-10-31T07:25:05;9.50;99.90
19344;DHT22;9808;52.402;16.678;2022-10-31T07:27:39;8.80;99.90
19344;DHT22;9808;52.402;16.678;2022-10-31T07:30:10;8.90;99.90
19344;DHT22;9808;52.402;16.678;2022-10-31T07:32:41;9.00;99.90
19344;DHT22;9808;52.402;16.678;2022-10-31T07:35:11;9.10;99.90
19344;DHT22;9808;52.402;16.678;2022-10-31T07:37:38;10.20;99.90
19344;DHT22;9808;52.402;16.678;2022-10-31T07:40:07;9.30;99.90
19344;DHT22;9808;52.402;16.678;2022-10-31T07:42:38;9.40;99.90
19344;DHT22;9808;52.402;16.678;2022-10-31T07:45:08;9.40;99.90
19344;DHT22;9808;52.402;16.678;2022-10-31T07:47:45;9.50;99.90
19344;DHT22;9808;52.402;16.678;2022-10-31T07:50:15;9.50;99.90
19344;DHT22;9808;52.402;16.678;2022-10-31T07:52:42;9.60;99.90
19344;DHT22;9808;52.402;16.678;2022-10-31T07:55:09;9.70;99.90
19344;DHT22;9808;52.402;16.678;2022-10-31T07:57:36;9.70;99.90
19344;DHT22;9808;52.402;16.678;2022-10-31T08:00:08;9.80;99.90
19344;DHT22;9808;52.402;16.678;2022-10-31T08:02:36;9.80;99.90
19344;DHT22;9808;52.402;16.678;2022-10-31T08:05:03;9.90;99.90
19344;DHT22;9808;52.402;16.678;2022-10-31T08:07:36;9.90;99.90
19344;DHT22;9808;52.402;16.678;2022-10-31T08:10:04;10.00;99.90
19344;DHT22;9808;52.402;16.678;2022-10-31T08:12:31;10.00;99.90
19344;DHT22;9808;52.402;16.678;2022-10-31T08:14:57;10.10;99.90
19344;DHT22;9808;52.402;16.678;2022-10-31T08:17:24;10.20;99.90
19344;DHT22;9808;52.402;16.678;2022-10-31T08:19:51;10.20;99.90
19344;DHT22;9808;52.402;16.678;2022-10-31T08:22:17;11.30;99.90
19344;DHT22;9808;52.402;16.678;2022-10-31T08:24:44;10.40;99.90
19344;DHT22;9808;52.402;16.678;2022-10-31T08:27:11;10.40;99.90
19344;DHT22;9808;52.402;16.678;2022-10-31T08:29:38;10.70;99.90
19344;DHT22;9808;52.402;16.678;2022-10-31T08:32:05;10.60;99.90
19344;DHT22;9808;52.402;16.678;2022-10-31T08:34:31;10.70;99.90
19344;DHT22;9808;52.402;16.678;2022-10-31T08:36:58;10.80;99.90
19344;DHT22;9808;52.402;16.678;2022-10-31T08:39:25;10.90;99.90
19344;DHT22;9808;52.402;16.678;2022-10-31T08:41:52;11.00;99.90
19344;DHT22;9808;52.402;16.678;2022-10-31T08:44:19;11.00;99.90
19344;DHT22;9808;52.402;16.678;2022-10-31T08:46:45;11.10;99.90
19344;DHT22;9808;52.402;16.678;2022-10-31T08:49:12;11.10;99.90
19344;DHT22;9808;52.402;16.678;2022-10-31T08:51:39;11.20;99.90
19344;DHT22;9808;52.402;16.678;2022-10-31T08:54:06;11.30;99.90
19344;DHT22;9808;52.402;16.678;2022-10-31T08:56:32;11.30;99.90
19344;DHT22;9808;52.402;16.678;2022-10-31T08:58:59;11.40;99.90
19344;DHT22;9808;52.402;16.678;2022-10-31T09:01:26;11.50;99.90
19344;DHT22;9808;52.402;16.678;2022-10-31T09:03:53;11.50;99.90
19344;DHT22;9808;52.402;16.678;2022-10-31T09:06:20;11.60;99.90
19344;DHT22;9808;52.402;16.678;2022-10-31T09:08:46;11.60;99.90
19344;DHT22;9808;52.402;16.678;2022-10-31T09:11:17;11.70;99.90
19344;DHT22;9808;52.402;16.678;2022-10-31T09:13:44;11.80;99.90
19344;DHT22;9808;52.402;16.678;2022-10-31T09:16:10;11.80;99.90
19344;DHT22;9808;52.402;16.678;2022-10-31T09:18:37;11.90;99.90
19344;DHT22;9808;52.402;16.678;2022-10-31T09:21:04;11.90;99.90
19344;DHT22;9808;52.402;16.678;2022-10-31T09:23:31;12.00;99.90
19344;DHT22;9808;52.402;16.678;2022-10-31T09:26:00;12.10;99.90
19344;DHT22;9808;52.402;16.678;2022-10-31T09:28:27;12.20;99.90
19344;DHT22;9808;52.402;16.678;2022-10-31T09:30:54;12.20;99.90
19344;DHT22;9808;52.402;16.678;2022-10-31T09:33:21;12.30;99.90
19344;DHT22;9808;52.402;16.678;2022-10-31T09:35:48;12.40;99.90
19344;DHT22;9808;52.402;16.678;2022-10-31T09:38:20;12.40;99.90
19344;DHT22;9808;52.402;16.678;2022-10-31T09:41:02;12.50;99.90
19344;DHT22;9808;52.402;16.678;2022-10-31T09:51:57;12.80;99.90
19344;DHT22;9808;52.402;16.678;2022-10-31T09:54:40;12.90;99.90
19344;DHT22;9808;52.402;16.678;2022-10-31T09:57:13;13.10;99.90
19344;DHT22;9808;52.402;16.678;2022-10-31T09:59:42;13.20;99.90
19344;DHT22;9808;52.402;16.678;2022-10-31T10:02:25;13.30;99.90
19344;DHT22;9808;52.402;16.678;2022-10-31T10:05:00;13.40;99.90
19344;DHT22;9808;52.402;16.678;2022-10-31T10:07:49;13.50;99.90
19344;DHT22;9808;52.402;16.678;2022-10-31T10:10:38;13.60;99.90
19344;DHT22;9808;52.402;16.678;2022-10-31T10:16:04;13.80;99.90
19344;DHT22;9808;52.402;16.678;2022-10-31T10:19:09;13.90;99.90
19344;DHT22;9808;52.402;16.678;2022-10-31T10:30:03;14.20;99.90
19344;DHT22;9808;52.402;16.678;2022-10-31T10:32:39;14.50;99.90
19344;DHT22;9808;52.402;16.678;2022-10-31T10:35:19;14.40;99.90
19344;DHT22;9808;52.402;16.678;2022-10-31T10:37:49;14.50;99.90
19344;DHT22;9808;52.402;16.678;2022-10-31T10:42:57;14.60;99.90
19344;DHT22;9808;52.402;16.678;2022-10-31T10:45:49;14.70;99.90
19344;DHT22;9808;52.402;16.678;2022-10-31T10:48:42;14.80;99.90
19344;DHT22;9808;52.402;16.678;2022-10-31T10:51:36;14.90;99.90
19344;DHT22;9808;52.402;16.678;2022-10-31T10:54:59;15.00;99.90
19344;DHT22;9808;52.402;16.678;2022-10-31T11:00:21;15.20;99.90
19344;DHT22;9808;52.402;16.678;2022-10-31T11:02:48;15.30;99.90
19344;DHT22;9808;52.402;16.678;2022-10-31T11:05:25;15.30;99.90
19344;DHT22;9808;52.402;16.678;2022-10-31T11:07:54;15.40;99.90
19344;DHT22;9808;52.402;16.678;2022-10-31T11:10:21;15.50;99.90
19344;DHT22;9808;52.402;16.678;2022-10-31T11:13:21;15.50;99.90
19344;DHT22;9808;52.402;16.678;2022-10-31T11:15:57;15.50;99.90
19344;DHT22;9808;52.402;16.678;2022-10-31T11:18:27;15.60;99.90
19344;DHT22;9808;52.402;16.678;2022-10-31T11:20:56;15.70;99.90
19344;DHT22;9808;52.402;16.678;2022-10-31T11:23:25;15.50;99.90
19344;DHT22;9808;52.402;16.678;2022-10-31T11:28:26;15.90;99.90
19344;DHT22;9808;52.402;16.678;2022-10-31T11:30:56;15.30;99.90
19344;DHT22;9808;52.402;16.678;2022-10-31T11:36:01;16.00;99.90
19344;DHT22;9808;52.402;16.678;2022-10-31T11:38:39;17.30;99.90
19344;DHT22;9808;52.402;16.678;2022-10-31T11:41:16;16.20;99.90
19344;DHT22;9808;52.402;16.678;2022-10-31T11:43:50;16.20;99.90
19344;DHT22;9808;52.402;16.678;2022-10-31T11:46:34;15.50;99.90
19344;DHT22;9808;52.402;16.678;2022-10-31T11:49:01;16.40;99.90
19344;DHT22;9808;52.402;16.678;2022-10-31T11:51:33;16.50;99.90
19344;DHT22;9808;52.402;16.678;2022-10-31T11:54:02;16.50;99.90
19344;DHT22;9808;52.402;16.678;2022-10-31T11:56:40;16.50;99.90
19344;DHT22;9808;52.402;16.678;2022-10-31T11:59:28;16.60;99.90
19344;DHT22;9808;52.402;16.678;2022-10-31T12:02:00;16.70;99.90
19344;DHT22;9808;52.402;16.678;2022-10-31T12:04:39;17.20;99.90
19344;DHT22;9808;52.402;16.678;2022-10-31T12:07:08;16.70;99.90
19344;DHT22;9808;52.402;16.678;2022-10-31T12:09:36;17.10;99.90
19344;DHT22;9808;52.402;16.678;2022-10-31T12:12:36;16.80;99.90
19344;DHT22;9808;52.402;16.678;2022-10-31T12:15:37;16.80;99.90
19344;DHT22;9808;52.402;16.678;2022-10-31T12:20:54;16.90;99.90
19344;DHT22;9808;52.402;16.678;2022-10-31T12:26:20;17.00;99.90
19344;DHT22;9808;52.402;16.678;2022-10-31T12:32:21;17.00;99.90
19344;DHT22;9808;52.402;16.678;2022-10-31T12:40:38;17.00;99.90
19344;DHT22;9808;52.402;16.678;2022-10-31T12:43:34;17.00;99.90
19344;DHT22;9808;52.402;16.678;2022-10-31T12:46:04;17.10;99.90
19344;DHT22;9808;52.402;16.678;2022-10-31T12:52:06;17.10;99.90
19344;DHT22;9808;52.402;16.678;2022-10-31T12:57:42;17.50;99.90
19344;DHT22;9808;52.402;16.678;2022-10-31T13:00:17;17.20;99.90
19344;DHT22;9808;52.402;16.678;2022-10-31T13:02:58;18.00;99.90
19344;DHT22;9808;52.402;16.678;2022-10-31T13:05:42;17.20;99.90
19344;DHT22;9808;52.402;16.678;2022-10-31T13:11:05;17.20;99.90
19344;DHT22;9808;52.402;16.678;2022-10-31T13:16:26;17.30;99.90
19344;DHT22;9808;52.402;16.678;2022-10-31T13:21:31;17.20;99.90
19344;DHT22;9808;52.402;16.678;2022-10-31T13:24:04;17.30;99.90
19344;DHT22;9808;52.402;16.678;2022-10-31T13:26:41;17.20;99.90
19344;DHT22;9808;52.402;16.678;2022-10-31T13:29:29;17.30;99.90
19344;DHT22;9808;52.402;16.678;2022-10-31T13:32:00;17.30;99.90
19344;DHT22;9808;52.402;16.678;2022-10-31T13:37:20;17.30;99.90
19344;DHT22;9808;52.402;16.678;2022-10-31T13:43:12;17.20;99.90
19344;DHT22;9808;52.402;16.678;2022-10-31T13:45:54;17.20;99.90
19344;DHT22;9808;52.402;16.678;2022-10-31T13:51:03;17.80;99.90
19344;DHT22;9808;52.402;16.678;2022-10-31T13:59:15;17.10;99.90
19344;DHT22;9808;52.402;16.678;2022-10-31T14:01:54;17.50;99.90
19344;DHT22;9808;52.402;16.678;2022-10-31T14:04:24;17.10;99.90
19344;DHT22;9808;52.402;16.678;2022-10-31T14:12:08;17.10;99.90
19344;DHT22;9808;52.402;16.678;2022-10-31T14:14:48;17.10;99.90
19344;DHT22;9808;52.402;16.678;2022-10-31T14:17:23;17.10;99.90
19344;DHT22;9808;52.402;16.678;2022-10-31T14:22:37;17.10;99.90
19344;DHT22;9808;52.402;16.678;2022-10-31T14:25:34;17.10;99.90
19344;DHT22;9808;52.402;16.678;2022-10-31T14:28:22;17.10;99.90
19344;DHT22;9808;52.402;16.678;2022-10-31T14:30:58;17.10;99.90
19344;DHT22;9808;52.402;16.678;2022-10-31T14:33:26;17.00;99.90
19344;DHT22;9808;52.402;16.678;2022-10-31T14:36:10;17.00;99.90
19344;DHT22;9808;52.402;16.678;2022-10-31T14:47:36;16.80;99.90
19344;DHT22;9808;52.402;16.678;2022-10-31T14:53:29;16.70;99.90
19344;DHT22;9808;52.402;16.678;2022-10-31T14:55:57;16.60;99.90
19344;DHT22;9808;52.402;16.678;2022-10-31T14:58:43;16.60;99.90
19344;DHT22;9808;52.402;16.678;2022-10-31T15:01:38;18.00;99.90
19344;DHT22;9808;52.402;16.678;2022-10-31T15:04:22;16.40;99.90
19344;DHT22;9808;52.402;16.678;2022-10-31T15:10:01;16.20;99.90
19344;DHT22;9808;52.402;16.678;2022-10-31T15:12:31;16.10;99.90
19344;DHT22;9808;52.402;16.678;2022-10-31T15:15:13;16.60;99.90
19344;DHT22;9808;52.402;16.678;2022-10-31T15:17:44;16.00;99.90
19344;DHT22;9808;52.402;16.678;2022-10-31T15:20:16;15.90;99.90
19344;DHT22;9808;52.402;16.678;2022-10-31T15:22:43;15.80;99.90
19344;DHT22;9808;52.402;16.678;2022-10-31T15:25:18;16.70;99.90
19344;DHT22;9808;52.402;16.678;2022-10-31T15:27:47;15.70;99.90
19344;DHT22;9808;52.402;16.678;2022-10-31T15:30:23;16.00;99.90
19344;DHT22;9808;52.402;16.678;2022-10-31T15:32:50;15.50;99.90
19344;DHT22;9808;52.402;16.678;2022-10-31T15:35:29;15.40;99.90
19344;DHT22;9808;52.402;16.678;2022-10-31T15:37:58;15.30;99.90
19344;DHT22;9808;52.402;16.678;2022-10-31T15:40:26;15.20;99.90
19344;DHT22;9808;52.402;16.678;2022-10-31T15:45:24;15.10;99.90
19344;DHT22;9808;52.402;16.678;2022-10-31T15:48:01;15.00;99.90
19344;DHT22;9808;52.402;16.678;2022-10-31T15:50:37;14.90;99.90
19344;DHT22;9808;52.402;16.678;2022-10-31T15:53:06;14.90;99.90
19344;DHT22;9808;52.402;16.678;2022-10-31T15:55:48;14.60;99.90
19344;DHT22;9808;52.402;16.678;2022-10-31T15:58:16;14.70;99.90
19344;DHT22;9808;52.402;16.678;2022-10-31T16:00:43;14.60;99.90
19344;DHT22;9808;52.402;16.678;2022-10-31T16:05:46;14.50;99.90
19344;DHT22;9808;52.402;16.678;2022-10-31T16:13:35;14.30;99.90
19344;DHT22;9808;52.402;16.678;2022-10-31T16:16:14;14.90;99.90
19344;DHT22;9808;52.402;16.678;2022-10-31T16:19:03;14.20;99.90
19344;DHT22;9808;52.402;16.678;2022-10-31T16:21:36;14.10;99.90
19344;DHT22;9808;52.402;16.678;2022-10-31T16:24:18;14.10;99.90
19344;DHT22;9808;52.402;16.678;2022-10-31T16:26:51;14.00;99.90
19344;DHT22;9808;52.402;16.678;2022-10-31T16:29:28;14.00;99.90
19344;DHT22;9808;52.402;16.678;2022-10-31T16:31:58;14.00;99.90
19344;DHT22;9808;52.402;16.678;2022-10-31T16:34:25;14.00;99.90
19344;DHT22;9808;52.402;16.678;2022-10-31T16:36:53;13.90;99.90
19344;DHT22;9808;52.402;16.678;2022-10-31T16:39:19;13.90;99.90
19344;DHT22;9808;52.402;16.678;2022-10-31T16:41:49;13.90;99.90
19344;DHT22;9808;52.402;16.678;2022-10-31T16:44:21;13.90;99.90
19344;DHT22;9808;52.402;16.678;2022-10-31T16:46:52;13.90;99.90
19344;DHT22;9808;52.402;16.678;2022-10-31T16:49:31;13.80;99.90
19344;DHT22;9808;52.402;16.678;2022-10-31T16:51:57;13.80;99.90
19344;DHT22;9808;52.402;16.678;2022-10-31T16:54:24;13.80;99.90
19344;DHT22;9808;52.402;16.678;2022-10-31T16:56:51;13.70;99.90
19344;DHT22;9808;52.402;16.678;2022-10-31T16:59:18;13.70;99.90
19344;DHT22;9808;52.402;16.678;2022-10-31T17:01:46;13.70;99.90
19344;DHT22;9808;52.402;16.678;2022-10-31T17:04:15;14.00;99.90
19344;DHT22;9808;52.402;16.678;2022-10-31T17:06:42;13.50;99.90
